Time;durP1;ratioP1;P1;durP2;ratioP2;P2;SDS_P1;SDS_P2;PMS_P1;PMS_P2;Temp;Humidity;BMP_temperature;BMP_pressure;BME280_temperature;BME280_humidity;BME280_pressure;Samples;Min_cycle;Max_cycle;Signal;HPM_P1;HPM_P2
2022/12/25 00:01:19;;;;;;;10.75;1.67;;;10.00;99.90;;;;;;4960602;28;20034;-67
2022/12/25 00:03:45;;;;;;;4.35;1.45;;;9.90;99.90;;;;;;4920110;28;20113;-66
2022/12/25 00:06:11;;;;;;;3.20;1.17;;;10.00;99.90;;;;;;4947471;28;20071;-66
2022/12/25 00:08:38;;;;;;;2.53;1.48;;;10.00;99.90;;;;;;4936671;28;20043;-66
2022/12/25 00:11:11;;;;;;;6.50;1.60;;;10.00;99.90;;;;;;4962325;28;20046;-66
2022/12/25 00:13:37;;;;;;;11.82;1.95;;;10.10;99.90;;;;;;4968512;28;20062;-66
2022/12/25 00:16:09;;;;;;;4.97;1.70;;;10.10;99.90;;;;;;4943281;28;20447;-66
2022/12/25 00:18:35;;;;;;;3.22;1.17;;;10.10;99.90;;;;;;4951863;28;20122;-66
2022/12/25 00:21:05;;;;;;;2.70;1.40;;;10.20;99.90;;;;;;4945786;29;20519;-66
2022/12/25 00:23:32;;;;;;;5.38;2.15;;;10.10;99.90;;;;;;4968821;28;20026;-66
2022/12/25 00:25:58;;;;;;;8.82;2.25;;;10.10;99.90;;;;;;4945379;28;20496;-66
2022/12/25 00:28:24;;;;;;;2.75;1.25;;;10.00;99.90;;;;;;4969214;28;20038;-66
2022/12/25 00:30:51;;;;;;;5.25;1.98;;;10.00;99.90;;;;;;4960084;28;20035;-66
2022/12/25 00:33:17;;;;;;;2.97;1.30;;;10.00;99.90;;;;;;4968300;28;20368;-66
2022/12/25 00:35:43;;;;;;;4.90;1.63;;;10.00;99.90;;;;;;4960472;28;20508;-66
2022/12/25 00:38:09;;;;;;;5.15;1.27;;;10.00;99.90;;;;;;4967549;28;20126;-67
2022/12/25 00:40:42;;;;;;;7.53;1.73;;;10.00;99.90;;;;;;4961215;28;20104;-66
2022/12/25 00:43:08;;;;;;;2.30;1.30;;;10.10;99.90;;;;;;4954446;28;20046;-66
2022/12/25 00:45:34;;;;;;;3.47;1.30;;;10.10;99.90;;;;;;4944400;28;20038;-66
2022/12/25 00:48:00;;;;;;;5.10;2.33;;;10.10;99.90;;;;;;4965997;28;20372;-66
2022/12/25 00:50:25;;;;;;;4.10;1.52;;;10.00;99.90;;;;;;4962022;28;20042;-66
2022/12/25 00:52:51;;;;;;;8.00;1.60;;;10.00;99.90;;;;;;4965072;28;20062;-66
2022/12/25 00:55:17;;;;;;;4.97;1.75;;;10.00;99.90;;;;;;4964016;28;20065;-66
2022/12/25 00:57:43;;;;;;;3.85;1.10;;;10.00;99.90;;;;;;4963566;28;20042;-66
2022/12/25 01:00:09;;;;;;;2.80;1.30;;;10.00;99.90;;;;;;4963791;28;20138;-65
2022/12/25 01:02:35;;;;;;;8.02;1.55;;;10.00;99.90;;;;;;4954250;28;20031;-66
2022/12/25 01:05:00;;;;;;;2.67;1.13;;;10.00;99.90;;;;;;4963649;28;20105;-65
2022/12/25 01:07:27;;;;;;;4.45;1.55;;;10.00;99.90;;;;;;4957213;28;20785;-66
2022/12/25 01:12:41;;;;;;;3.03;1.40;;;9.90;99.90;;;;;;4956871;28;20038;-66
2022/12/25 01:15:09;;;;;;;3.45;1.73;;;9.90;99.90;;;;;;4962768;28;20034;-65
2022/12/25 01:17:35;;;;;;;2.45;1.27;;;9.80;99.90;;;;;;4963213;28;20026;-65
2022/12/25 01:20:01;;;;;;;3.13;1.10;;;9.80;99.90;;;;;;4963099;28;20085;-65
2022/12/25 01:22:27;;;;;;;4.90;1.55;;;9.80;99.90;;;;;;4954030;28;20490;-65
2022/12/25 01:24:53;;;;;;;4.95;1.35;;;9.80;99.90;;;;;;4964538;28;20041;-66
2022/12/25 01:27:18;;;;;;;5.18;1.38;;;9.80;99.90;;;;;;4967125;28;20039;-66
2022/12/25 01:29:45;;;;;;;1.73;1.10;;;9.80;99.90;;;;;;4966881;28;20125;-66
2022/12/25 01:32:11;;;;;;;6.65;1.60;;;9.80;99.90;;;;;;4957874;28;20018;-66
2022/12/25 01:34:37;;;;;;;3.90;1.50;;;9.80;99.90;;;;;;4949811;28;20046;-66
2022/12/25 01:37:03;;;;;;;6.55;1.60;;;9.80;99.90;;;;;;4966950;28;20541;-66
2022/12/25 01:39:29;;;;;;;7.53;0.90;;;9.80;99.90;;;;;;4966823;28;20031;-66
2022/12/25 01:41:55;;;;;;;1.63;0.95;;;9.80;99.90;;;;;;4966749;28;20402;-66
2022/12/25 01:44:36;;;;;;;2.33;1.20;;;9.80;99.90;;;;;;4967080;28;20093;-66
2022/12/25 01:47:03;;;;;;;5.93;1.05;;;9.80;99.90;;;;;;4957752;28;20039;-66
2022/12/25 01:49:33;;;;;;;2.10;1.25;;;9.80;99.90;;;;;;4966764;28;20154;-66
2022/12/25 01:52:18;;;;;;;8.13;1.23;;;9.90;99.90;;;;;;4973043;28;20034;-66
2022/12/25 01:54:53;;;;;;;3.40;1.42;;;9.90;99.90;;;;;;4949970;28;20031;-66
2022/12/25 01:57:25;;;;;;;2.92;1.33;;;9.90;99.90;;;;;;4957539;28;20031;-66
2022/12/25 01:59:53;;;;;;;9.02;1.63;;;9.90;99.90;;;;;;4949511;28;20114;-66
2022/12/25 02:02:20;;;;;;;2.25;1.38;;;9.90;99.90;;;;;;4957405;28;20030;-65
2022/12/25 02:05:09;;;;;;;3.35;2.35;;;9.90;99.90;;;;;;4960455;28;20039;-65
2022/12/25 02:07:36;;;;;;;3.15;0.90;;;9.90;99.90;;;;;;4951052;28;20062;-65
2022/12/25 02:10:03;;;;;;;6.95;2.17;;;9.90;99.90;;;;;;4943235;28;20068;-65
2022/12/25 02:12:33;;;;;;;5.18;1.05;;;9.90;99.90;;;;;;4964337;28;20709;-66
2022/12/25 02:15:12;;;;;;;2.63;1.50;;;9.90;99.90;;;;;;4942786;29;20032;-67
2022/12/25 02:18:13;;;;;;;2.53;1.25;;;9.80;99.90;;;;;;4952783;29;20716;-66
2022/12/25 02:21:07;;;;;;;1.35;0.80;;;9.80;99.90;;;;;;4961083;28;20545;-66
2022/12/25 02:24:19;;;;;;;2.15;1.10;;;9.80;99.90;;;;;;4968504;28;20043;-66
2022/12/25 02:27:12;;;;;;;3.53;0.90;;;9.80;99.90;;;;;;4940742;28;20031;-66
2022/12/25 02:30:05;;;;;;;3.25;1.00;;;9.80;99.90;;;;;;4964498;28;20030;-66
2022/12/25 02:32:39;;;;;;;4.22;0.95;;;9.80;99.90;;;;;;4957818;28;20518;-66
2022/12/25 02:35:17;;;;;;;6.28;1.25;;;9.80;99.90;;;;;;4965786;28;20045;-66
2022/12/25 02:38:02;;;;;;;4.97;1.23;;;9.80;99.90;;;;;;4941280;28;20493;-66
2022/12/25 02:40:42;;;;;;;4.85;1.10;;;9.90;99.90;;;;;;4947951;28;20086;-66
2022/12/25 03:06:43;;;;;;;2.35;1.23;;;10.10;99.90;;;;;;4951262;28;20031;-66
2022/12/25 03:12:17;;;;;;;3.80;1.23;;;10.10;99.90;;;;;;4943299;29;20150;-66
2022/12/25 03:17:31;;;;;;;1.52;0.93;;;10.10;99.90;;;;;;4958277;28;20442;-66
2022/12/25 03:28:13;;;;;;;3.17;1.33;;;9.90;99.90;;;;;;4943049;28;20039;-66
2022/12/25 03:31:11;;;;;;;5.55;1.42;;;9.90;99.90;;;;;;4955337;28;20043;-66
2022/12/25 04:36:08;;;;;;;3.85;1.10;;;9.80;99.90;;;;;;4952121;28;20030;-66
2022/12/25 04:38:35;;;;;;;2.55;1.20;;;9.90;99.90;;;;;;4962315;28;20058;-66
2022/12/25 04:41:01;;;;;;;2.85;1.33;;;9.90;99.90;;;;;;4964315;28;20054;-66
2022/12/25 04:43:27;;;;;;;7.07;1.35;;;10.00;99.90;;;;;;4961588;28;20409;-66
2022/12/25 04:45:58;;;;;;;6.82;1.50;;;10.10;99.90;;;;;;4949626;28;20074;-66
2022/12/25 04:48:25;;;;;;;;;;;10.10;99.90;;;;;;4965843;28;20442;-66
2022/12/25 04:50:51;;;;;;;2.80;1.63;;;10.20;99.90;;;;;;4966632;28;19949;-66
2022/12/25 04:53:17;;;;;;;3.95;1.40;;;10.20;99.90;;;;;;4960258;28;20028;-66
2022/12/25 04:55:43;;;;;;;4.45;1.42;;;10.10;99.90;;;;;;4950757;28;20049;-66
2022/12/25 04:58:09;;;;;;;2.35;1.02;;;10.10;99.90;;;;;;4946715;29;20126;-66
2022/12/25 05:00:35;;;;;;;4.40;1.35;;;10.10;99.90;;;;;;4953543;28;20038;-66
2022/12/25 05:03:01;;;;;;;2.75;0.95;;;10.10;99.90;;;;;;4933597;29;20065;-66
2022/12/25 05:05:27;;;;;;;6.85;1.55;;;10.20;99.90;;;;;;4971673;28;20490;-66
2022/12/25 05:07:52;;;;;;;6.20;1.27;;;10.20;99.90;;;;;;4961123;28;20035;-66
2022/12/25 05:10:18;;;;;;;4.00;1.23;;;10.20;99.90;;;;;;4959081;28;20110;-66
2022/12/25 05:12:44;;;;;;;2.97;0.98;;;10.20;99.90;;;;;;4963784;28;20054;-66
2022/12/25 05:15:09;;;;;;;3.72;1.98;;;10.20;99.90;;;;;;4963648;28;20564;-66
2022/12/25 05:17:36;;;;;;;4.72;2.28;;;10.20;99.90;;;;;;4963433;28;20065;-66
2022/12/25 05:20:04;;;;;;;3.53;1.52;;;10.20;99.90;;;;;;4973650;28;20035;-66
2022/12/25 05:22:29;;;;;;;2.13;1.00;;;10.30;99.90;;;;;;4965005;28;20042;-66
2022/12/25 05:24:55;;;;;;;2.28;1.00;;;10.20;99.90;;;;;;4968903;28;20034;-66
2022/12/25 05:27:21;;;;;;;3.42;1.58;;;10.20;99.90;;;;;;4966247;28;20049;-66
2022/12/25 05:29:46;;;;;;;3.33;1.05;;;10.10;99.90;;;;;;4967330;28;20090;-66
2022/12/25 05:32:12;;;;;;;5.97;0.90;;;10.20;99.90;;;;;;4966786;28;20042;-66
2022/12/25 05:34:38;;;;;;;3.70;0.88;;;10.20;99.90;;;;;;4957493;28;20030;-66
2022/12/25 05:37:03;;;;;;;6.55;1.13;;;10.10;99.90;;;;;;4966832;28;20042;-66
2022/12/25 05:39:29;;;;;;;6.72;1.05;;;10.10;99.90;;;;;;4958023;28;20472;-66
2022/12/25 05:41:55;;;;;;;4.13;1.08;;;10.10;99.90;;;;;;4959937;28;20046;-66
2022/12/25 05:44:21;;;;;;;2.25;0.90;;;10.10;99.90;;;;;;4966883;28;20102;-66
2022/12/25 05:46:46;;;;;;;1.52;0.95;;;10.10;99.90;;;;;;4966611;28;20122;-66
2022/12/25 05:49:12;;;;;;;1.77;0.85;;;10.20;99.90;;;;;;4970822;28;20030;-66
2022/12/25 05:51:38;;;;;;;5.10;1.83;;;10.30;99.90;;;;;;4966398;28;20534;-66
2022/12/25 05:54:07;;;;;;;2.80;1.10;;;10.30;99.90;;;;;;4957282;28;20093;-66
2022/12/25 05:56:41;;;;;;;2.55;1.00;;;10.30;99.90;;;;;;4966253;28;20035;-66
2022/12/25 05:59:55;;;;;;;2.33;1.35;;;10.20;99.90;;;;;;4966582;28;20027;-66
2022/12/25 06:02:24;;;;;;;3.70;1.02;;;10.20;99.90;;;;;;4921373;28;20050;-66
2022/12/25 06:04:59;;;;;;;1.98;0.80;;;10.30;99.90;;;;;;4961852;28;20499;-66
2022/12/25 06:07:25;;;;;;;3.72;1.27;;;10.30;99.90;;;;;;4961532;28;20042;-66
2022/12/25 06:09:56;;;;;;;1.23;0.85;;;10.30;99.90;;;;;;4961687;28;20035;-67
2022/12/25 06:12:22;;;;;;;0.98;0.55;;;10.30;99.90;;;;;;4961355;28;20113;-66
2022/12/25 06:15:42;;;;;;;2.25;1.17;;;10.30;99.90;;;;;;4962711;28;20114;-66
2022/12/25 06:19:05;;;;;;;2.13;1.15;;;10.30;99.90;;;;;;4957493;28;20109;-67
2022/12/25 06:21:33;;;;;;;6.88;1.30;;;10.20;99.90;;;;;;4910043;29;20048;-66
2022/12/25 06:24:14;;;;;;;6.70;1.65;;;10.20;99.90;;;;;;4895323;29;20043;-66
2022/12/25 06:27:34;;;;;;;3.37;1.33;;;10.20;99.90;;;;;;4912245;29;20518;-66
2022/12/25 06:30:09;;;;;;;1.55;0.93;;;10.10;99.90;;;;;;4856262;29;20061;-66
2022/12/25 06:32:47;;;;;;;3.05;1.50;;;10.10;99.90;;;;;;4856101;29;20085;-66
2022/12/25 06:35:13;;;;;;;2.70;1.00;;;10.10;99.90;;;;;;4857228;29;20034;-66
2022/12/25 06:37:47;;;;;;;4.93;1.15;;;10.10;99.90;;;;;;4857565;29;20505;-66
2022/12/25 06:40:13;;;;;;;3.65;1.48;;;10.10;99.90;;;;;;4857041;29;20125;-66
2022/12/25 06:42:39;;;;;;;3.38;1.42;;;10.10;99.90;;;;;;4865347;29;20124;-66
2022/12/25 06:45:05;;;;;;;1.75;0.70;;;10.10;99.90;;;;;;4871388;29;20041;-66
2022/12/25 06:47:37;;;;;;;3.40;0.80;;;10.10;99.90;;;;;;4866621;29;20497;-66
2022/12/25 06:50:47;;;;;;;2.55;1.00;;;10.00;99.90;;;;;;4849872;29;20491;-67
2022/12/25 06:53:18;;;;;;;1.80;0.90;;;10.00;99.90;;;;;;4843057;29;20046;-66
2022/12/25 06:56:23;;;;;;;3.65;1.48;;;10.00;99.90;;;;;;4823033;29;20064;-66
2022/12/25 06:59:12;;;;;;;2.22;1.38;;;10.00;99.90;;;;;;4827357;29;20752;-66
2022/12/25 07:01:58;;;;;;;2.38;1.02;;;10.00;99.90;;;;;;4839662;29;20049;-66
2022/12/25 07:04:46;;;;;;;3.85;1.35;;;10.10;99.90;;;;;;4830346;29;20068;-67
2022/12/25 07:07:39;;;;;;;8.85;1.98;;;10.10;99.90;;;;;;4854808;29;20490;-66
2022/12/25 07:10:23;;;;;;;2.03;1.40;;;10.10;99.90;;;;;;4852093;29;20057;-66
2022/12/25 07:13:25;;;;;;;4.18;2.15;;;10.10;99.90;;;;;;4852561;29;20042;-66
2022/12/25 07:16:03;;;;;;;8.95;3.95;;;10.00;99.90;;;;;;4847885;29;20418;-66
2022/12/25 07:18:35;;;;;;;2.25;1.27;;;10.00;99.90;;;;;;4860860;29;20512;-66
2022/12/25 07:21:47;;;;;;;1.98;1.02;;;10.00;99.90;;;;;;4861807;29;20037;-66
2022/12/25 07:24:28;;;;;;;3.03;1.63;;;10.00;99.90;;;;;;4865490;29;20038;-71
2022/12/25 07:26:54;;;;;;;1.73;1.60;;;10.00;99.90;;;;;;4846626;29;20068;-67
2022/12/25 07:29:26;;;;;;;4.18;1.27;;;10.00;99.90;;;;;;4901538;29;20078;-67
2022/12/25 07:31:54;;;;;;;2.58;1.20;;;10.00;99.90;;;;;;4953043;28;20078;-74
2022/12/25 07:34:42;;;;;;;11.88;1.30;;;10.00;99.90;;;;;;4959760;28;20467;-66
2022/12/25 07:37:10;;;;;;;7.75;1.58;;;10.00;99.90;;;;;;4959892;28;20070;-66
2022/12/25 07:39:39;;;;;;;3.53;1.20;;;10.00;99.90;;;;;;4951333;28;20035;-66
2022/12/25 07:42:43;;;;;;;4.72;1.65;;;10.10;99.90;;;;;;4952502;28;20402;-66
2022/12/25 07:45:21;;;;;;;11.80;3.67;;;10.40;99.90;;;;;;4941888;28;20043;-66
2022/12/25 07:48:28;;;;;;;5.55;2.47;;;10.40;99.90;;;;;;4961287;28;20399;-66
2022/12/25 07:51:22;;;;;;;2.30;1.58;;;10.40;99.90;;;;;;4884986;29;20048;-66
2022/12/25 07:54:03;;;;;;;2.00;1.48;;;10.40;99.90;;;;;;4898734;29;20055;-66
2022/12/25 07:56:38;;;;;;;3.75;1.50;;;10.40;99.90;;;;;;4893478;29;20618;-66
2022/12/25 07:59:15;;;;;;;3.20;1.80;;;10.30;99.90;;;;;;4889663;29;20555;-66
2022/12/25 08:02:45;;;;;;;20.42;8.13;;;10.30;99.90;;;;;;4892712;29;20052;-66
2022/12/25 08:05:17;;;;;;;5.65;2.55;;;10.40;99.90;;;;;;4888576;29;20033;-66
2022/12/25 08:07:43;;;;;;;2.72;1.48;;;10.30;99.90;;;;;;4883608;29;20080;-66
2022/12/25 08:10:21;;;;;;;2.40;1.27;;;10.40;99.90;;;;;;4890656;29;20069;-66
2022/12/25 08:12:55;;;;;;;2.15;1.10;;;10.30;99.90;;;;;;4890614;29;20043;-66
2022/12/25 08:15:33;;;;;;;1.88;1.02;;;10.20;99.90;;;;;;4888924;29;20066;-65
2022/12/25 08:17:58;;;;;;;7.13;1.50;;;10.20;99.90;;;;;;4892364;29;20029;-66
2022/12/25 08:20:27;;;;;;;1.52;1.00;;;10.20;99.90;;;;;;4893288;29;20413;-67
2022/12/25 08:22:59;;;;;;;3.88;1.50;;;10.30;99.90;;;;;;4951486;28;20043;-67
2022/12/25 08:25:24;;;;;;;3.05;1.30;;;10.30;99.90;;;;;;4951440;28;20070;-67
2022/12/25 08:28:35;;;;;;;5.60;1.88;;;10.40;99.90;;;;;;4931290;28;20039;-67
2022/12/25 08:31:21;;;;;;;2.93;1.63;;;10.40;99.90;;;;;;4874135;29;20060;-67
2022/12/25 08:34:25;;;;;;;5.45;2.30;;;10.40;99.90;;;;;;4925924;28;20058;-67
2022/12/25 08:40:42;;;;;;;3.72;1.67;;;10.50;99.90;;;;;;4867375;29;20132;-67
2022/12/25 08:46:35;;;;;;;1.85;1.00;;;10.50;99.90;;;;;;4864423;29;20086;-66
2022/12/25 08:49:10;;;;;;;3.20;1.40;;;10.50;99.90;;;;;;4864916;29;20090;-66
2022/12/25 08:51:59;;;;;;;5.72;1.35;;;10.40;99.90;;;;;;4936695;28;20051;-66
2022/12/25 08:54:31;;;;;;;5.28;2.17;;;10.30;99.90;;;;;;4945231;28;20041;-66
2022/12/25 09:01:07;;;;;;;5.60;1.25;;;10.50;99.90;;;;;;4848131;29;20502;-66
2022/12/25 09:03:33;;;;;;;1.95;1.20;;;10.40;99.90;;;;;;4835955;29;20045;-66
2022/12/25 09:06:09;;;;;;;2.22;1.35;;;10.50;99.90;;;;;;4845328;29;20490;-65
2022/12/25 09:08:44;;;;;;;3.33;1.17;;;10.50;99.90;;;;;;4854928;29;20037;-65
2022/12/25 09:11:54;;;;;;;1.98;1.27;;;10.50;99.90;;;;;;4850388;29;20482;-65
2022/12/25 09:14:46;;;;;;;3.97;1.97;;;10.50;99.90;;;;;;4826818;29;20047;-65
2022/12/25 09:17:41;;;;;;;6.93;2.75;;;10.40;99.90;;;;;;4850159;29;20037;-65
2022/12/25 09:22:42;;;;;;;4.72;1.70;;;10.40;99.90;;;;;;5624652;23;20051;-71
2022/12/25 09:25:08;;;;;;;4.07;2.00;;;10.50;99.90;;;;;;4937300;29;20517;-73
2022/12/25 09:27:34;;;;;;;3.38;1.63;;;10.50;99.90;;;;;;4938822;28;20028;-72
2022/12/25 09:29:59;;;;;;;1.73;1.25;;;10.60;99.90;;;;;;4931840;29;20038;-70
2022/12/25 09:32:25;;;;;;;3.25;1.67;;;10.60;99.90;;;;;;4933549;29;20503;-70
2022/12/25 09:34:51;;;;;;;2.95;1.77;;;10.60;99.90;;;;;;4905287;29;20035;-71
2022/12/25 09:37:16;;;;;;;2.17;1.27;;;10.70;99.90;;;;;;4928078;29;20039;-70
2022/12/25 09:39:42;;;;;;;2.00;1.20;;;10.80;99.90;;;;;;4927966;29;20066;-70
2022/12/25 09:42:21;;;;;;;3.78;1.45;;;10.90;99.90;;;;;;4928085;29;20035;-70
2022/12/25 09:45:03;;;;;;;2.30;1.02;;;11.00;99.90;;;;;;4929794;29;20046;-71
2022/12/25 09:47:33;;;;;;;3.10;1.25;;;11.20;99.90;;;;;;4912820;29;20368;-70
2022/12/25 09:50:10;;;;;;;1.67;1.17;;;11.50;99.90;;;;;;4912461;29;20040;-69
2022/12/25 09:52:53;;;;;;;3.30;1.50;;;11.80;99.90;;;;;;4941132;29;20655;-69
2022/12/25 09:55:25;;;;;;;1.83;1.00;;;12.50;99.90;;;;;;4935562;29;20036;-70
2022/12/25 09:57:54;;;;;;;3.35;1.15;;;13.00;99.90;;;;;;4924055;29;20035;-70
2022/12/25 10:00:24;;;;;;;2.67;1.05;;;13.10;99.90;;;;;;4915033;29;20502;-71
2022/12/25 10:03:18;;;;;;;0.82;0.57;;;12.90;99.90;;;;;;4918852;29;20044;-71
2022/12/25 10:06:06;;;;;;;2.95;1.05;;;13.00;99.90;;;;;;4917351;29;20028;-71
2022/12/25 10:09:17;;;;;;;2.20;1.13;;;13.20;99.90;;;;;;4936919;29;20114;-70
2022/12/25 10:12:05;;;;;;;3.00;1.60;;;12.80;99.90;;;;;;4945506;29;20059;-72
2022/12/25 10:14:52;;;;;;;2.40;1.15;;;12.70;99.90;;;;;;4914740;29;20131;-71
2022/12/25 10:17:49;;;;;;;2.13;0.93;;;12.60;99.90;;;;;;4934568;29;20036;-70
2022/12/25 10:20:39;;;;;;;1.58;0.93;;;13.00;99.90;;;;;;4933220;29;20074;-71
2022/12/25 10:23:16;;;;;;;4.55;2.28;;;13.00;99.90;;;;;;4920584;29;20024;-70
2022/12/25 10:25:43;;;;;;;2.33;0.85;;;13.00;99.90;;;;;;4932523;29;20035;-71
2022/12/25 10:28:22;;;;;;;2.80;0.70;;;13.20;99.90;;;;;;4934984;29;20038;-70
2022/12/25 10:30:51;;;;;;;4.30;0.73;;;13.00;99.90;;;;;;4914013;29;20123;-70
2022/12/25 10:33:17;;;;;;;1.08;0.57;;;13.10;99.90;;;;;;4933128;29;20043;-70
2022/12/25 10:35:43;;;;;;;1.40;0.77;;;12.70;99.90;;;;;;4936066;29;20063;-70
2022/12/25 10:38:17;;;;;;;1.73;1.00;;;12.70;99.90;;;;;;4941938;29;20391;-70
2022/12/25 10:41:09;;;;;;;1.23;0.68;;;12.80;99.90;;;;;;4934313;29;20735;-71
2022/12/25 10:43:47;;;;;;;2.03;0.57;;;12.70;99.90;;;;;;4934936;29;20387;-71
2022/12/25 10:46:14;;;;;;;2.90;0.73;;;12.70;99.90;;;;;;4918416;29;20106;-71
2022/12/25 10:48:55;;;;;;;0.98;0.68;;;12.80;99.90;;;;;;4933630;29;20031;-71
2022/12/25 10:51:38;;;;;;;3.05;0.82;;;12.70;99.90;;;;;;4902590;29;20547;-71
2022/12/25 10:54:36;;;;;;;1.17;0.52;;;12.60;99.90;;;;;;4918851;29;20115;-71
2022/12/25 10:57:11;;;;;;;2.85;1.00;;;12.40;99.90;;;;;;4933432;29;20099;-71
2022/12/25 10:59:47;;;;;;;1.90;0.95;;;12.40;99.90;;;;;;4935002;29;20534;-71
2022/12/25 11:02:28;;;;;;;2.03;0.45;;;12.40;99.90;;;;;;4927670;29;20028;-71
2022/12/25 11:05:08;;;;;;;1.23;0.80;;;12.50;99.90;;;;;;4935167;29;20036;-70
2022/12/25 11:07:49;;;;;;;2.00;1.05;;;12.40;99.90;;;;;;4915065;29;20534;-70
2022/12/25 11:10:36;;;;;;;2.70;1.20;;;12.60;99.90;;;;;;4910140;29;20482;-71
2022/12/25 11:13:06;;;;;;;0.75;0.50;;;12.70;99.90;;;;;;4930197;29;20060;-71
2022/12/25 11:15:46;;;;;;;0.93;0.68;;;12.80;99.90;;;;;;4918550;29;20035;-71
2022/12/25 11:18:23;;;;;;;1.00;0.68;;;12.60;99.90;;;;;;4935206;29;20406;-71
2022/12/25 11:20:53;;;;;;;1.45;0.68;;;12.80;99.90;;;;;;4936167;29;20039;-72
2022/12/25 11:23:22;;;;;;;4.18;0.82;;;12.50;99.90;;;;;;4931574;29;20035;-72
2022/12/25 11:26:07;;;;;;;4.55;0.65;;;12.70;99.90;;;;;;4931524;29;20479;-71
2022/12/25 11:28:36;;;;;;;2.97;1.08;;;12.40;99.90;;;;;;4937368;29;20039;-69
2022/12/25 11:31:06;;;;;;;0.80;0.77;;;12.40;99.90;;;;;;4936591;29;20039;-69
2022/12/25 11:33:38;;;;;;;0.95;0.82;;;12.50;99.90;;;;;;4936179;29;20035;-69
2022/12/25 11:36:27;;;;;;;1.70;0.75;;;12.50;99.90;;;;;;4903434;29;20386;-70
2022/12/25 11:38:53;;;;;;;1.77;0.95;;;12.60;99.90;;;;;;4938900;29;20035;-71
2022/12/25 11:41:25;;;;;;;1.48;0.93;;;12.70;99.90;;;;;;4939661;29;20036;-71
2022/12/25 11:43:58;;;;;;;2.97;1.20;;;12.70;99.90;;;;;;4911895;29;20032;-70
2022/12/25 11:46:42;;;;;;;3.45;1.08;;;12.70;99.90;;;;;;4917109;29;20098;-69
2022/12/25 11:49:15;;;;;;;6.10;1.00;;;12.60;99.90;;;;;;4930463;29;20040;-69
2022/12/25 11:51:46;;;;;;;1.08;0.60;;;12.70;99.90;;;;;;4941164;29;20039;-69
2022/12/25 11:54:35;;;;;;;2.33;1.10;;;12.70;99.90;;;;;;4936202;28;20032;-69
2022/12/25 11:57:03;;;;;;;1.77;1.17;;;12.60;99.90;;;;;;4931166;29;20036;-70
2022/12/25 11:59:58;;;;;;;2.92;1.17;;;12.60;99.90;;;;;;4907337;29;20059;-69
2022/12/25 12:02:48;;;;;;;1.98;1.02;;;12.70;99.90;;;;;;4915198;29;20067;-69
2022/12/25 12:05:33;;;;;;;12.20;1.80;;;13.30;99.90;;;;;;4933787;29;20528;-70
2022/12/25 12:08:02;;;;;;;7.55;1.77;;;13.60;99.90;;;;;;4913175;29;20552;-69
2022/12/25 12:10:52;;;;;;;4.25;1.20;;;14.10;99.90;;;;;;4935860;28;20051;-70
2022/12/25 12:14:08;;;;;;;2.92;1.40;;;14.70;99.90;;;;;;4927648;29;20525;-70
2022/12/25 12:16:34;;;;;;;1.08;0.73;;;15.00;99.90;;;;;;4925836;29;20027;-70
2022/12/25 12:19:22;;;;;;;2.65;1.05;;;15.20;99.90;;;;;;4933955;29;20031;-70
2022/12/25 12:21:48;;;;;;;2.45;1.02;;;15.30;99.90;;;;;;4934960;29;20038;-70
2022/12/25 12:24:21;;;;;;;1.48;0.70;;;15.20;99.90;;;;;;4933910;29;20098;-70
2022/12/25 12:27:26;;;;;;;2.55;1.30;;;15.00;99.90;;;;;;4926267;29;20533;-69
2022/12/25 12:29:57;;;;;;;3.40;1.30;;;15.00;99.90;;;;;;4934757;29;20110;-70
2022/12/25 12:32:33;;;;;;;2.08;1.45;;;14.40;99.90;;;;;;4914736;29;20102;-70
2022/12/25 12:35:06;;;;;;;2.28;1.02;;;14.00;99.90;;;;;;4934195;29;20036;-70
2022/12/25 12:37:36;;;;;;;2.03;1.20;;;14.10;99.90;;;;;;4932152;29;20498;-69
2022/12/25 12:40:04;;;;;;;2.03;1.05;;;14.30;99.90;;;;;;4934377;29;20053;-69
2022/12/25 12:42:39;;;;;;;2.88;1.02;;;15.30;99.90;;;;;;4940837;29;20112;-69
2022/12/25 12:45:36;;;;;;;3.30;1.27;;;15.60;99.90;;;;;;4932024;29;20043;-69
2022/12/25 12:48:15;;;;;;;1.30;0.85;;;16.60;99.90;;;;;;4902083;29;20044;-69
2022/12/25 12:50:41;;;;;;;2.58;1.00;;;16.20;99.90;;;;;;4913853;29;20123;-71
2022/12/25 12:53:22;;;;;;;2.83;1.00;;;16.50;99.90;;;;;;4932825;29;20036;-69
2022/12/25 12:55:49;;;;;;;3.80;1.38;;;16.00;99.90;;;;;;4937249;29;20039;-70
2022/12/25 12:58:33;;;;;;;2.83;1.10;;;16.40;99.90;;;;;;4944292;29;20024;-69
2022/12/25 13:01:38;;;;;;;1.50;0.98;;;16.40;99.90;;;;;;4915302;29;20039;-69
2022/12/25 13:04:39;;;;;;;5.07;0.93;;;16.00;99.90;;;;;;4918888;29;20039;-69
2022/12/25 13:07:31;;;;;;;3.28;1.13;;;15.80;99.90;;;;;;4931853;29;20515;-69
2022/12/25 13:10:17;;;;;;;1.88;0.90;;;15.80;99.90;;;;;;4928733;29;20401;-69
2022/12/25 13:12:43;;;;;;;2.17;1.33;;;15.70;99.90;;;;;;4912951;29;20027;-69
2022/12/25 13:15:13;;;;;;;1.83;1.13;;;15.90;99.90;;;;;;4913716;29;20034;-69
2022/12/25 13:17:44;;;;;;;1.50;0.90;;;16.00;99.90;;;;;;4931837;29;20034;-69
2022/12/25 13:20:44;;;;;;;1.65;0.77;;;16.00;99.90;;;;;;4932841;29;20028;-69
2022/12/25 13:23:34;;;;;;;3.88;1.27;;;15.60;99.90;;;;;;4893641;29;20036;-69
2022/12/25 13:26:10;;;;;;;1.45;0.80;;;15.40;99.90;;;;;;4940825;29;20065;-69
2022/12/25 13:28:36;;;;;;;2.40;0.90;;;15.30;99.90;;;;;;4947293;29;20651;-69
2022/12/25 13:31:12;;;;;;;2.35;1.00;;;15.00;99.90;;;;;;4937249;29;20031;-69
2022/12/25 13:34:01;;;;;;;3.45;1.08;;;15.40;99.90;;;;;;4936543;29;20370;-69
2022/12/25 13:36:33;;;;;;;2.50;1.15;;;15.40;99.90;;;;;;4927915;29;20551;-68
2022/12/25 13:38:59;;;;;;;1.98;1.13;;;15.50;99.90;;;;;;4936110;29;20019;-69
2022/12/25 13:44:23;;;;;;;1.48;0.90;;;14.90;99.90;;;;;;4937185;29;20036;-69
2022/12/25 13:46:49;;;;;;;3.58;1.60;;;14.80;99.90;;;;;;4920975;29;20119;-69
2022/12/25 13:49:24;;;;;;;1.83;0.98;;;14.60;99.90;;;;;;4936074;29;20119;-69
2022/12/25 13:51:50;;;;;;;1.05;0.47;;;14.20;99.90;;;;;;4937756;29;20032;-69
2022/12/25 13:54:22;;;;;;;1.30;0.80;;;13.90;99.90;;;;;;4936484;29;20038;-69
2022/12/25 13:56:52;;;;;;;3.15;1.25;;;13.80;99.90;;;;;;4937504;29;20068;-69
2022/12/25 13:59:23;;;;;;;3.92;1.45;;;13.80;99.90;;;;;;4935928;29;20373;-69
2022/12/25 14:01:50;;;;;;;3.00;1.27;;;13.90;99.90;;;;;;4920622;29;20067;-69
2022/12/25 14:04:23;;;;;;;1.55;0.88;;;14.00;99.90;;;;;;4936567;29;20032;-69
2022/12/25 14:06:51;;;;;;;2.85;1.40;;;14.00;99.90;;;;;;4937727;29;20062;-70
2022/12/25 14:09:18;;;;;;;6.00;1.17;;;14.00;99.90;;;;;;4935339;29;20063;-69
2022/12/25 14:11:50;;;;;;;2.65;1.25;;;13.90;99.90;;;;;;4920234;29;20087;-70
2022/12/25 14:14:23;;;;;;;2.10;1.33;;;13.90;99.90;;;;;;4935195;29;20028;-70
2022/12/25 14:16:53;;;;;;;6.45;2.38;;;13.90;99.90;;;;;;4920645;29;20032;-69
2022/12/25 14:19:32;;;;;;;2.08;1.00;;;14.00;99.90;;;;;;4935456;29;20030;-70
2022/12/25 14:22:19;;;;;;;2.10;1.10;;;14.30;99.90;;;;;;4934707;29;20491;-70
2022/12/25 14:24:46;;;;;;;2.70;1.00;;;14.90;99.90;;;;;;4936556;29;20039;-70
2022/12/25 14:27:29;;;;;;;5.35;1.67;;;15.50;99.90;;;;;;4932973;29;20063;-68
2022/12/25 14:29:59;;;;;;;5.45;1.50;;;15.60;99.90;;;;;;4921728;29;20027;-68
2022/12/25 14:32:29;;;;;;;1.77;0.93;;;15.90;99.90;;;;;;4900045;29;20032;-68
2022/12/25 14:35:02;;;;;;;3.10;1.25;;;16.10;99.90;;;;;;4921530;29;20463;-69
2022/12/25 14:37:31;;;;;;;3.33;1.20;;;15.90;99.90;;;;;;4934706;29;20058;-68
2022/12/25 14:40:18;;;;;;;2.60;1.10;;;15.40;99.90;;;;;;4916103;29;20566;-69
2022/12/25 14:43:04;;;;;;;2.65;1.20;;;15.10;99.90;;;;;;4933276;29;20039;-69
2022/12/25 14:45:38;;;;;;;5.28;1.63;;;14.90;99.90;;;;;;4912691;29;20031;-68
2022/12/25 14:48:20;;;;;;;1.52;0.80;;;14.80;99.90;;;;;;4927763;29;20466;-68
2022/12/25 14:51:07;;;;;;;2.22;1.20;;;14.50;99.90;;;;;;4934062;29;20111;-68
2022/12/25 14:53:46;;;;;;;2.35;1.00;;;14.40;99.90;;;;;;4931396;29;20038;-69
2022/12/25 14:56:17;;;;;;;1.13;0.90;;;14.40;99.90;;;;;;4927470;29;20398;-68
2022/12/25 14:58:58;;;;;;;2.33;1.05;;;14.20;99.90;;;;;;4935405;29;20078;-69
2022/12/25 15:01:34;;;;;;;;;;;14.00;99.90;;;;;;4919920;29;20443;-69
2022/12/25 15:04:19;;;;;;;4.78;1.80;;;13.90;99.90;;;;;;4917689;29;20016;-68
2022/12/25 15:06:59;;;;;;;3.22;1.33;;;13.70;99.90;;;;;;4917183;29;20112;-69
2022/12/25 15:09:28;;;;;;;2.00;1.05;;;13.60;99.90;;;;;;4933822;29;20028;-70
2022/12/25 15:11:55;;;;;;;2.85;1.20;;;13.50;99.90;;;;;;4936037;29;20043;-70
2022/12/25 15:14:25;;;;;;;2.60;1.40;;;13.30;99.90;;;;;;4930942;29;20527;-70
2022/12/25 15:17:34;;;;;;;1.98;0.93;;;13.30;99.90;;;;;;4931502;29;20039;-69
2022/12/25 15:20:59;;;;;;;1.30;0.88;;;13.30;99.90;;;;;;4929938;29;20043;-69
2022/12/25 15:23:40;;;;;;;1.88;1.00;;;13.20;99.90;;;;;;4874350;29;20048;-69
2022/12/25 15:30:03;;;;;;;3.50;1.15;;;13.30;99.90;;;;;;4820911;29;20054;-70
2022/12/25 15:32:41;;;;;;;2.92;1.30;;;13.20;99.90;;;;;;4810124;29;20063;-70
2022/12/25 15:35:20;;;;;;;2.75;1.55;;;13.10;99.90;;;;;;4801305;29;20046;-70
2022/12/25 15:37:46;;;;;;;2.60;1.33;;;13.00;99.90;;;;;;4799552;29;20050;-70